createdAt,value
2023-05-01T00:00:41.281Z,4.20
2023-05-01T00:03:14.854Z,3.87
2023-05-01T00:05:45.043Z,4.60
2023-05-01T00:08:13.803Z,4.67
2023-05-01T00:10:42.948Z,3.20
2023-05-01T00:13:12.167Z,3.67
2023-05-01T00:15:43.300Z,3.47
2023-05-01T00:18:11.992Z,4.57
2023-05-01T00:20:42.625Z,2.80
2023-05-01T00:23:12.666Z,2.53
2023-05-01T00:25:41.605Z,4.60
2023-05-01T00:28:10.552Z,7.50
2023-05-01T00:30:41.758Z,6.60
2023-05-01T00:33:12.017Z,3.53
2023-05-01T00:35:53.132Z,5.50
2023-05-01T00:38:22.801Z,3.03
2023-05-01T00:40:53.959Z,5.23
2023-05-01T00:43:24.109Z,3.70
2023-05-01T00:45:57.160Z,3.13
2023-05-01T00:48:27.733Z,3.53
2023-05-01T00:51:02.713Z,7.70
2023-05-01T00:53:32.018Z,3.50
2023-05-01T00:56:01.440Z,3.10
2023-05-01T00:58:42.785Z,3.13
2023-05-01T01:01:11.460Z,3.20
2023-05-01T01:03:44.201Z,3.83
2023-05-01T01:06:18.297Z,4.80
2023-05-01T01:08:52.320Z,2.70
2023-05-01T01:11:23.246Z,4.80
2023-05-01T01:13:55.274Z,3.37
2023-05-01T01:16:29.486Z,6.97
2023-05-01T01:19:04.328Z,4.70
2023-05-01T01:21:36.354Z,3.17
2023-05-01T01:24:29.391Z,3.50
2023-05-01T01:30:31.560Z,6.60
2023-05-01T01:33:13.051Z,4.70
2023-05-01T01:35:46.197Z,2.70
2023-05-01T01:38:18.466Z,5.87
2023-05-01T01:40:56.030Z,2.77
2023-05-01T01:43:26.541Z,3.50
2023-05-01T01:45:56.638Z,3.30
2023-05-01T01:48:27.550Z,2.60
2023-05-01T01:50:59.326Z,3.00
2023-05-01T01:53:30.170Z,3.30
2023-05-01T01:56:03.842Z,3.97
2023-05-01T01:58:36.158Z,5.60
2023-05-01T02:01:06.659Z,4.00
2023-05-01T02:03:37.056Z,5.97
2023-05-01T02:06:15.520Z,3.97
2023-05-01T02:08:55.130Z,3.50
2023-05-01T02:11:24.125Z,6.40
2023-05-01T02:13:54.122Z,3.63
2023-05-01T02:19:07.804Z,3.83
2023-05-01T02:21:40.449Z,3.53
2023-05-01T02:24:10.670Z,4.20
2023-05-01T02:26:45.137Z,4.03
2023-05-01T02:29:14.798Z,6.50
2023-05-01T02:31:43.582Z,3.37
2023-05-01T02:34:12.705Z,4.77
2023-05-01T02:36:43.114Z,3.97
2023-05-01T02:39:14.432Z,8.70
2023-05-01T02:41:44.407Z,5.07
2023-05-01T02:44:13.627Z,6.13
2023-05-01T02:46:45.158Z,4.90
2023-05-01T02:52:14.721Z,5.03
2023-05-01T02:54:45.417Z,5.10
2023-05-01T02:57:16.782Z,3.70
2023-05-01T02:59:45.781Z,5.57
2023-05-01T03:02:15.983Z,3.47
2023-05-01T03:04:49.856Z,7.90
2023-05-01T03:07:21.291Z,7.30
2023-05-01T03:09:50.238Z,4.80
2023-05-01T03:12:27.295Z,5.07
2023-05-01T03:14:58.436Z,4.87
2023-05-01T03:17:28.243Z,5.30
2023-05-01T03:19:57.203Z,6.83
2023-05-01T03:22:28.139Z,4.83
2023-05-01T03:25:00.929Z,5.57
2023-05-01T03:27:30.796Z,5.20
2023-05-01T03:30:00.357Z,4.33
2023-05-01T03:32:38.899Z,4.40
2023-05-01T03:37:59.020Z,5.67
2023-05-01T03:40:30.469Z,4.60
2023-05-01T03:43:12.122Z,3.50
2023-05-01T03:45:44.791Z,5.53
2023-05-01T03:51:05.212Z,4.43
2023-05-01T03:53:37.833Z,7.47
2023-05-01T03:56:09.510Z,4.30
2023-05-01T03:58:38.811Z,4.10
2023-05-01T04:01:08.992Z,6.57
2023-05-01T04:03:39.170Z,4.47
2023-05-01T04:06:22.827Z,3.80
2023-05-01T04:08:54.752Z,7.63
2023-05-01T04:11:24.096Z,6.90
2023-05-01T04:13:52.920Z,6.03
2023-05-01T04:16:24.866Z,4.53
2023-05-01T04:18:56.320Z,4.27
2023-05-01T04:21:26.977Z,4.80
2023-05-01T04:23:59.870Z,7.17
2023-05-01T04:26:34.996Z,3.87
2023-05-01T04:29:08.378Z,4.17
2023-05-01T04:31:38.163Z,3.80
2023-05-01T04:34:09.209Z,4.43
2023-05-01T04:36:38.545Z,5.20
2023-05-01T04:39:12.960Z,5.93
2023-05-01T04:41:45.339Z,5.77
2023-05-01T04:44:14.320Z,6.63
2023-05-01T04:46:43.591Z,5.13
2023-05-01T04:49:14.681Z,5.53
2023-05-01T04:51:53.091Z,5.23
2023-05-01T04:54:25.851Z,3.87
2023-05-01T04:57:02.263Z,5.83
2023-05-01T04:59:31.943Z,5.37
2023-05-01T05:02:00.972Z,6.37
2023-05-01T05:04:29.685Z,7.10
2023-05-01T05:09:45.333Z,6.27
2023-05-01T05:12:15.459Z,6.00
2023-05-01T05:14:44.895Z,7.90
2023-05-01T05:17:16.177Z,7.37
2023-05-01T05:19:45.774Z,7.90
2023-05-01T05:22:16.636Z,4.90
2023-05-01T05:24:47.314Z,4.70
2023-05-01T05:27:23.527Z,6.00
2023-05-01T05:29:52.986Z,4.87
2023-05-01T05:35:05.354Z,4.83
2023-05-01T05:37:34.850Z,4.77
2023-05-01T05:40:07.598Z,5.47
2023-05-01T05:42:37.394Z,8.40
2023-05-01T05:45:09.044Z,4.80
2023-05-01T05:47:38.673Z,6.70
2023-05-01T05:50:09.053Z,6.67
2023-05-01T05:52:40.539Z,4.53
2023-05-01T05:55:12.390Z,7.03
2023-05-01T05:57:44.060Z,5.23
2023-05-01T06:00:13.789Z,4.77
2023-05-01T06:02:42.843Z,4.80
2023-05-01T06:05:12.203Z,4.50
2023-05-01T06:07:54.732Z,5.53
2023-05-01T06:10:43.071Z,5.10
2023-05-01T06:13:14.899Z,7.80
2023-05-01T06:15:47.672Z,4.23
2023-05-01T06:18:17.088Z,7.20
2023-05-01T06:20:45.983Z,5.50
2023-05-01T06:23:27.364Z,4.77
2023-05-01T06:25:57.180Z,7.10
2023-05-01T06:28:28.109Z,5.57
2023-05-01T06:30:58.396Z,5.13
2023-05-01T06:33:27.262Z,3.30
2023-05-01T06:36:00.533Z,7.20
2023-05-01T06:38:41.023Z,4.80
2023-05-01T06:41:26.455Z,6.57
2023-05-01T06:44:11.037Z,6.97
2023-05-01T06:46:39.898Z,7.63
2023-05-01T06:49:08.705Z,9.70
2023-05-01T06:51:40.226Z,4.40
2023-05-01T06:54:10.133Z,7.70
2023-05-01T06:56:40.891Z,6.50
2023-05-01T06:59:11.531Z,5.23
2023-05-01T07:01:40.920Z,5.60
2023-05-01T07:04:12.609Z,5.83
2023-05-01T07:06:43.243Z,4.30
2023-05-01T07:09:12.567Z,4.40
2023-05-01T07:11:45.548Z,5.80
2023-05-01T07:14:22.531Z,5.27
2023-05-01T07:16:52.014Z,17.03
2023-05-01T07:19:22.657Z,5.60
2023-05-01T07:21:52.452Z,7.27
2023-05-01T07:24:38.317Z,4.43
2023-05-01T07:27:08.655Z,4.00
2023-05-01T07:29:42.417Z,3.60
2023-05-01T07:37:46.894Z,6.17
2023-05-01T07:42:58.627Z,2.80
2023-05-01T07:45:36.685Z,3.90
2023-05-01T07:48:05.503Z,6.30
2023-05-01T07:50:41.951Z,3.70
2023-05-01T07:53:19.856Z,4.50
2023-05-01T07:55:48.857Z,3.67
2023-05-01T07:58:18.464Z,7.20
2023-05-01T08:00:59.937Z,4.00
2023-05-01T08:03:30.610Z,3.93
2023-05-01T08:05:59.521Z,3.93
2023-05-01T08:08:30.108Z,4.30
2023-05-01T08:10:59.012Z,3.80
2023-05-01T08:13:28.849Z,4.10
2023-05-01T08:16:05.602Z,4.33
2023-05-01T08:18:36.695Z,5.00
2023-05-01T08:21:07.155Z,4.10
2023-05-01T08:23:44.261Z,4.53
2023-05-01T08:26:12.902Z,4.40
2023-05-01T08:28:50.300Z,4.90
2023-05-01T08:31:28.090Z,4.37
2023-05-01T08:33:56.899Z,4.03
2023-05-01T08:36:29.425Z,4.70
2023-05-01T08:44:41.989Z,4.70
2023-05-01T08:47:19.415Z,3.17
2023-05-01T08:49:48.911Z,4.50
2023-05-01T08:52:17.706Z,4.30
2023-05-01T08:54:48.649Z,4.90
2023-05-01T08:57:17.970Z,7.93
2023-05-01T08:59:49.583Z,3.27
2023-05-01T09:02:30.080Z,5.13
2023-05-01T09:05:10.662Z,4.20
2023-05-01T09:07:41.206Z,5.47
2023-05-01T09:10:11.289Z,4.63
2023-05-01T09:12:41.360Z,4.73
2023-05-01T09:15:10.559Z,3.47
2023-05-01T09:17:42.894Z,3.83
2023-05-01T09:20:12.539Z,5.67
2023-05-01T09:22:44.796Z,4.67
2023-05-01T09:25:13.613Z,7.63
2023-05-01T09:27:42.702Z,6.20
2023-05-01T09:30:46.932Z,5.73
2023-05-01T09:33:22.035Z,6.73
2023-05-01T09:35:55.752Z,3.93
2023-05-01T09:38:25.388Z,4.37
2023-05-01T09:40:56.902Z,5.23
2023-05-01T09:43:29.289Z,7.60
2023-05-01T09:46:06.601Z,6.40
2023-05-01T09:48:38.138Z,3.17
2023-05-01T09:51:22.682Z,12.60
2023-05-01T09:53:54.535Z,5.73
2023-05-01T09:56:24.105Z,5.63
2023-05-01T09:58:54.546Z,5.80
2023-05-01T10:01:42.153Z,6.07
2023-05-01T10:04:22.851Z,7.30
2023-05-01T10:06:53.370Z,6.47
2023-05-01T10:09:29.201Z,5.77
2023-05-01T10:11:59.420Z,7.37
2023-05-01T10:14:29.844Z,6.40
2023-05-01T10:16:59.790Z,6.00
2023-05-01T10:19:30.244Z,6.90
2023-05-01T10:21:59.559Z,7.37
2023-05-01T10:24:28.457Z,20.30
2023-05-01T10:26:58.730Z,10.83
2023-05-01T10:29:29.752Z,10.43
2023-05-01T10:34:46.559Z,12.50
2023-05-01T10:37:16.298Z,5.40
2023-05-01T10:39:47.944Z,8.10
2023-05-01T10:42:17.865Z,6.23
2023-05-01T10:44:48.023Z,8.83
2023-05-01T10:47:35.839Z,9.43
2023-05-01T10:50:07.464Z,8.33
2023-05-01T10:52:51.233Z,6.93
2023-05-01T10:55:35.872Z,13.10
2023-05-01T10:58:05.379Z,9.63
2023-05-01T11:00:35.081Z,8.03
2023-05-01T11:03:24.463Z,7.27
2023-05-01T11:06:11.387Z,8.60
2023-05-01T11:08:40.804Z,11.50
2023-05-01T11:11:24.865Z,8.73
2023-05-01T11:14:00.278Z,10.30
2023-05-01T11:16:47.273Z,11.23
2023-05-01T11:19:34.888Z,9.17
2023-05-01T11:22:15.623Z,8.40
2023-05-01T11:24:45.069Z,13.57
2023-05-01T11:27:19.396Z,10.23
2023-05-01T11:29:49.165Z,9.10
2023-05-01T11:32:20.816Z,12.17
2023-05-01T11:34:51.218Z,13.47
2023-05-01T11:40:21.598Z,12.50
2023-05-01T11:42:51.100Z,11.80
2023-05-01T11:45:28.457Z,10.07
2023-05-01T11:47:57.306Z,13.23
2023-05-01T11:50:35.791Z,11.63
2023-05-01T11:53:07.678Z,12.90
2023-05-01T11:55:36.989Z,14.03
2023-05-01T11:58:05.629Z,10.97
2023-05-01T12:00:36.876Z,11.30
2023-05-01T12:03:12.420Z,11.13
2023-05-01T12:05:50.133Z,9.93
2023-05-01T12:08:22.548Z,12.40
2023-05-01T12:10:56.224Z,12.10
2023-05-01T12:13:26.489Z,12.50
2023-05-01T12:15:56.246Z,13.17
2023-05-01T12:18:25.967Z,12.33
2023-05-01T12:20:57.363Z,14.03
2023-05-01T12:23:34.280Z,11.63
2023-05-01T12:26:03.929Z,10.53
2023-05-01T12:28:39.894Z,12.67
2023-05-01T12:31:10.769Z,14.60
2023-05-01T12:33:39.227Z,12.33
2023-05-01T12:36:12.172Z,11.47
2023-05-01T12:38:42.399Z,14.80
2023-05-01T12:41:12.855Z,9.73
2023-05-01T12:43:44.260Z,12.90
2023-05-01T12:46:15.925Z,15.93
2023-05-01T12:48:46.017Z,13.77
2023-05-01T12:56:41.052Z,14.00
2023-05-01T12:59:53.821Z,16.10
2023-05-01T13:23:45.806Z,11.57
2023-05-01T13:26:27.121Z,12.40
2023-05-01T13:29:15.921Z,20.20
2023-05-01T13:31:45.422Z,10.73
2023-05-01T13:34:17.760Z,14.00
2023-05-01T13:36:46.462Z,11.13
2023-05-01T13:39:22.678Z,10.30
2023-05-01T13:41:54.365Z,8.80
2023-05-01T13:44:23.734Z,9.13
2023-05-01T13:46:59.545Z,7.87
2023-05-01T13:49:28.629Z,7.50
2023-05-01T13:51:59.565Z,9.30
2023-05-01T13:54:46.894Z,10.07
2023-05-01T13:57:29.269Z,10.30
2023-05-01T13:59:58.160Z,11.27
2023-05-01T14:02:29.072Z,10.20
2023-05-01T14:05:12.443Z,15.33
2023-05-01T14:07:48.152Z,8.50
2023-05-01T14:10:19.747Z,10.60
2023-05-01T14:13:24.161Z,9.37
2023-05-01T14:15:53.437Z,8.77
2023-05-01T14:18:29.993Z,6.90
2023-05-01T14:21:07.153Z,9.53
2023-05-01T14:23:44.026Z,7.40
2023-05-01T14:26:28.377Z,5.90
2023-05-01T14:29:13.916Z,7.07
2023-05-01T14:31:45.588Z,9.60
2023-05-01T14:34:24.493Z,6.93
2023-05-01T14:36:53.202Z,4.70
2023-05-01T14:39:44.570Z,5.57
2023-05-01T14:42:29.887Z,5.03
2023-05-01T14:45:13.984Z,8.63
2023-05-01T14:48:06.655Z,6.00
2023-05-01T14:50:43.431Z,7.53
2023-05-01T14:53:23.468Z,7.03
2023-05-01T14:55:55.133Z,5.43
2023-05-01T14:58:48.897Z,5.63
2023-05-01T15:01:27.443Z,4.70
2023-05-01T15:04:06.563Z,5.50
2023-05-01T15:06:36.002Z,6.77
2023-05-01T15:09:21.252Z,8.17
2023-05-01T15:15:03.948Z,5.70
2023-05-01T15:19:08.458Z,4.80
2023-05-01T15:39:13.595Z,5.20
2023-05-01T15:42:31.090Z,5.03
2023-05-01T15:45:19.758Z,4.57
2023-05-01T15:48:19.980Z,4.47
2023-05-01T15:51:34.060Z,9.90
2023-05-01T15:54:10.630Z,4.27
2023-05-01T15:56:47.788Z,6.20
2023-05-01T15:59:25.119Z,4.10
2023-05-01T16:05:55.394Z,4.67
2023-05-01T16:09:03.552Z,5.33
2023-05-01T16:11:52.903Z,11.70
2023-05-01T16:14:22.276Z,5.70
2023-05-01T16:17:04.993Z,4.70
2023-05-01T16:22:29.467Z,6.67
2023-05-01T16:25:14.258Z,7.13
2023-05-01T16:27:46.924Z,5.23
2023-05-01T16:30:25.304Z,19.50
2023-05-01T16:32:54.387Z,10.03
2023-05-01T16:38:45.490Z,6.53
2023-05-01T16:41:19.204Z,4.80
2023-05-01T16:44:01.358Z,6.37
2023-05-01T16:46:33.897Z,8.70
2023-05-01T16:49:06.897Z,6.63
2023-05-01T16:51:42.742Z,9.37
2023-05-01T16:54:48.976Z,8.80
2023-05-01T16:57:25.270Z,6.93
2023-05-01T16:59:57.556Z,6.30
2023-05-01T17:02:26.654Z,6.90
2023-05-01T17:05:02.030Z,7.40
2023-05-01T17:07:30.850Z,6.90
2023-05-01T17:10:00.911Z,9.43
2023-05-01T17:12:35.552Z,12.23
2023-05-01T17:15:07.019Z,7.40
2023-05-01T17:17:37.192Z,15.40
2023-05-01T17:20:13.813Z,9.20
2023-05-01T17:22:47.125Z,11.57
2023-05-01T17:25:15.647Z,12.40
2023-05-01T17:27:49.513Z,5.87
2023-05-01T17:30:20.571Z,8.70
2023-05-01T17:32:50.051Z,6.30
2023-05-01T17:35:23.384Z,7.77
2023-05-01T17:37:52.458Z,7.57
2023-05-01T17:40:21.587Z,9.87
2023-05-01T17:42:50.534Z,6.87
2023-05-01T17:45:20.540Z,12.67
2023-05-01T17:47:53.911Z,7.97
2023-05-01T17:50:25.373Z,9.53
2023-05-01T17:52:54.330Z,9.17
2023-05-01T17:55:23.901Z,9.83
2023-05-01T17:57:53.400Z,8.50
2023-05-01T18:00:33.520Z,10.93
2023-05-01T18:03:04.673Z,10.30
2023-05-01T18:05:34.412Z,10.90
2023-05-01T18:08:03.598Z,9.20
2023-05-01T18:10:32.358Z,8.50
2023-05-01T18:13:01.409Z,6.37
2023-05-01T18:15:32.267Z,6.90
2023-05-01T18:18:02.948Z,7.83
2023-05-01T18:20:32.215Z,9.97
2023-05-01T18:23:04.388Z,7.73
2023-05-01T18:25:33.158Z,6.20
2023-05-01T18:28:02.272Z,5.10
2023-05-01T18:30:32.699Z,9.30
2023-05-01T18:33:03.383Z,12.77
2023-05-01T18:35:34.216Z,7.10
2023-05-01T18:38:02.960Z,6.67
2023-05-01T18:40:34.029Z,4.67
2023-05-01T18:43:02.756Z,8.50
2023-05-01T18:45:36.251Z,5.53
2023-05-01T18:48:05.856Z,6.83
2023-05-01T18:50:39.372Z,6.93
2023-05-01T18:53:08.362Z,8.57
2023-05-01T18:55:37.350Z,8.80
2023-05-01T18:58:08.242Z,5.67
2023-05-01T19:00:39.800Z,8.77
2023-05-01T19:03:09.447Z,5.60
2023-05-01T19:05:39.089Z,15.50
2023-05-01T19:08:09.791Z,3.90
2023-05-01T19:10:38.686Z,4.17
2023-05-01T19:13:13.463Z,4.10
2023-05-01T19:15:44.092Z,9.00
2023-05-01T19:18:13.182Z,8.80
2023-05-01T19:20:42.071Z,3.97
2023-05-01T19:23:27.437Z,3.30
2023-05-01T19:25:56.805Z,5.73
2023-05-01T19:28:25.660Z,5.07
2023-05-01T19:30:55.737Z,4.70
2023-05-01T19:33:26.649Z,2.80
2023-05-01T19:35:57.793Z,4.00
2023-05-01T19:38:26.198Z,3.20
2023-05-01T19:40:56.434Z,2.60
2023-05-01T19:43:25.376Z,4.70
2023-05-01T19:45:55.509Z,6.70
2023-05-01T19:48:24.341Z,2.27
2023-05-01T19:50:52.848Z,2.40
2023-05-01T19:53:21.534Z,2.27
2023-05-01T19:55:50.663Z,2.07
2023-05-01T19:58:19.171Z,2.97
2023-05-01T20:01:05.149Z,2.17
2023-05-01T20:03:34.205Z,3.00
2023-05-01T20:06:03.389Z,2.70
2023-05-01T20:08:31.870Z,2.40
2023-05-01T20:11:00.813Z,3.20
2023-05-01T20:13:29.557Z,2.30
2023-05-01T20:16:00.434Z,2.40
2023-05-01T20:18:31.965Z,2.50
2023-05-01T20:21:00.827Z,2.70
2023-05-01T20:23:30.085Z,6.60
2023-05-01T20:25:58.758Z,2.00
2023-05-01T20:28:27.079Z,3.47
2023-05-01T20:31:00.211Z,2.30
2023-05-01T20:33:30.517Z,2.53
2023-05-01T20:35:59.597Z,2.03
2023-05-01T20:38:29.458Z,4.40
2023-05-01T20:40:59.737Z,2.27
2023-05-01T20:43:28.181Z,3.13
2023-05-01T20:45:59.740Z,4.40
2023-05-01T20:48:28.254Z,3.67
2023-05-01T20:51:05.490Z,2.23
2023-05-01T20:53:34.346Z,2.50
2023-05-01T20:56:04.304Z,1.80
2023-05-01T20:58:33.032Z,2.47
2023-05-01T21:01:05.877Z,2.00
2023-05-01T21:03:34.933Z,2.90
2023-05-01T21:06:08.119Z,1.60
2023-05-01T21:08:38.162Z,2.47
2023-05-01T21:11:07.237Z,2.00
2023-05-01T21:13:39.356Z,1.33
2023-05-01T21:16:15.795Z,2.90
2023-05-01T21:18:44.342Z,1.83
2023-05-01T21:21:15.692Z,1.97
2023-05-01T21:23:48.082Z,1.90
2023-05-01T21:26:19.155Z,1.93
2023-05-01T21:28:48.027Z,2.73
2023-05-01T21:31:17.888Z,3.10
2023-05-01T21:33:46.984Z,1.70
2023-05-01T21:36:19.079Z,2.00
2023-05-01T21:38:47.660Z,1.90
2023-05-01T21:41:16.300Z,2.10
2023-05-01T21:43:44.846Z,1.50
2023-05-01T21:46:16.221Z,1.40
2023-05-01T21:48:44.960Z,1.57
2023-05-01T21:51:16.871Z,2.60
2023-05-01T21:53:45.608Z,1.47
2023-05-01T21:56:16.634Z,1.80
2023-05-01T21:58:45.643Z,2.53
2023-05-01T22:01:14.665Z,2.67
2023-05-01T22:03:44.567Z,1.30
2023-05-01T22:06:13.028Z,1.53
2023-05-01T22:08:43.563Z,1.67
2023-05-01T22:11:12.118Z,2.20
2023-05-01T22:13:40.674Z,2.83
2023-05-01T22:16:09.618Z,1.50
2023-05-01T22:18:38.055Z,2.67
2023-05-01T22:21:06.922Z,2.60
2023-05-01T22:23:35.445Z,2.50
2023-05-01T22:26:23.761Z,2.03
2023-05-01T22:28:52.873Z,2.13
2023-05-01T22:31:21.321Z,1.60
2023-05-01T22:33:49.826Z,2.13
2023-05-01T22:36:18.183Z,2.60
2023-05-01T22:38:46.724Z,2.73
2023-05-01T22:41:15.576Z,3.27
2023-05-01T22:43:45.642Z,1.43
2023-05-01T22:46:14.075Z,1.80
2023-05-01T22:48:42.797Z,2.43
2023-05-01T22:51:11.159Z,2.83
2023-05-01T22:53:39.460Z,1.60
2023-05-01T22:56:08.468Z,2.23
2023-05-01T22:58:37.059Z,2.70
2023-05-01T23:01:07.597Z,2.40
2023-05-01T23:03:38.680Z,2.87
2023-05-01T23:06:07.504Z,2.60
2023-05-01T23:08:36.066Z,2.20
2023-05-01T23:11:04.936Z,2.37
2023-05-01T23:13:34.392Z,2.20
2023-05-01T23:16:02.793Z,1.70
2023-05-01T23:18:34.511Z,3.80
2023-05-01T23:21:03.447Z,1.80
2023-05-01T23:23:32.674Z,2.53
2023-05-01T23:26:01.279Z,1.70
2023-05-01T23:28:30.405Z,2.23
2023-05-01T23:30:59.646Z,2.30
2023-05-01T23:33:29.551Z,2.13
2023-05-01T23:35:59.624Z,2.07
2023-05-01T23:38:28.021Z,2.10
2023-05-01T23:40:56.729Z,2.37
2023-05-01T23:43:25.232Z,2.37
2023-05-01T23:45:53.718Z,1.37
2023-05-01T23:48:22.226Z,1.60
2023-05-01T23:50:50.675Z,1.90
2023-05-01T23:53:20.931Z,2.17
2023-05-01T23:55:52.615Z,2.77
2023-05-01T23:58:21.203Z,2.20
